createdAt,value
2022-11-23T00:01:15.031Z,15.32
2022-11-23T00:04:19.051Z,15.07
2022-11-23T00:07:23.029Z,14.47
2022-11-23T00:10:25.737Z,15.50
2022-11-23T00:13:31.139Z,13.60
2022-11-23T00:16:33.920Z,14.68
2022-11-23T00:19:37.871Z,13.35
2022-11-23T00:22:41.918Z,15.63
2022-11-23T00:25:45.702Z,14.40
2022-11-23T00:28:51.322Z,13.80
2022-11-23T00:31:54.018Z,13.25
2022-11-23T00:34:57.951Z,14.95
2022-11-23T00:38:01.881Z,14.37
2022-11-23T00:41:07.136Z,12.97
2022-11-23T00:44:12.436Z,13.82
2022-11-23T00:47:15.114Z,13.07
2022-11-23T00:50:19.546Z,13.27
2022-11-23T00:53:23.463Z,15.57
2022-11-23T00:56:26.376Z,13.63
2022-11-23T00:59:31.905Z,14.15
2022-11-23T01:02:37.242Z,12.77
2022-11-23T01:05:40.224Z,13.70
2022-11-23T01:08:44.604Z,14.23
2022-11-23T01:11:47.355Z,15.03
2022-11-23T01:14:55.350Z,14.65
2022-11-23T01:17:59.261Z,12.63
2022-11-23T01:21:02.173Z,14.10
2022-11-23T01:24:07.685Z,13.90
2022-11-23T01:27:10.365Z,14.47
2022-11-23T01:33:38.899Z,15.15
2022-11-23T01:36:42.092Z,14.75
2022-11-23T01:39:44.770Z,13.50
2022-11-23T01:42:55.129Z,14.20
2022-11-23T01:46:01.801Z,14.07
2022-11-23T01:49:08.830Z,13.88
2022-11-23T01:52:15.722Z,14.88
2022-11-23T01:55:20.307Z,14.63
2022-11-23T01:58:25.421Z,14.60
2022-11-23T02:01:30.824Z,14.73
2022-11-23T02:04:38.716Z,14.38
2022-11-23T02:07:42.665Z,13.48
2022-11-23T02:10:46.779Z,13.30
2022-11-23T02:13:51.384Z,14.33
2022-11-23T02:16:57.414Z,14.38
2022-11-23T02:20:05.378Z,14.63
2022-11-23T02:23:22.708Z,14.10
2022-11-23T02:26:30.951Z,13.00
2022-11-23T02:29:34.639Z,14.20
2022-11-23T02:32:40.367Z,13.68
2022-11-23T02:35:49.622Z,13.85
2022-11-23T02:38:54.074Z,12.82
2022-11-23T02:41:59.830Z,12.57
2022-11-23T02:45:15.878Z,13.63
2022-11-23T02:48:19.900Z,14.18
2022-11-23T02:51:22.725Z,13.38
2022-11-23T02:54:26.670Z,13.77
2022-11-23T02:57:31.995Z,13.37
2022-11-23T03:00:34.812Z,13.00
2022-11-23T03:03:38.826Z,14.40
2022-11-23T03:06:42.863Z,13.23
2022-11-23T03:09:46.840Z,13.52
2022-11-23T03:12:52.115Z,13.40
2022-11-23T03:15:56.816Z,13.70
2022-11-23T03:19:00.818Z,13.10
2022-11-23T03:22:04.202Z,13.07
2022-11-23T03:25:08.658Z,13.18
2022-11-23T03:28:12.678Z,13.20
2022-11-23T03:31:16.647Z,13.00
2022-11-23T03:34:20.568Z,14.40
2022-11-23T03:37:25.493Z,14.07
2022-11-23T03:40:28.202Z,14.63
2022-11-23T03:46:54.105Z,13.63
2022-11-23T03:49:58.044Z,13.43
2022-11-23T03:53:00.721Z,14.57
2022-11-23T03:56:04.730Z,13.75
2022-11-23T03:59:10.176Z,13.80
2022-11-23T04:02:12.845Z,13.63
2022-11-23T04:05:16.896Z,14.05
2022-11-23T04:08:20.914Z,15.05
2022-11-23T04:11:24.945Z,14.40
2022-11-23T04:14:30.273Z,12.80
2022-11-23T04:17:32.947Z,12.97
2022-11-23T04:20:37.144Z,13.10
2022-11-23T04:23:39.803Z,12.35
2022-11-23T04:26:43.868Z,13.50
2022-11-23T04:29:47.875Z,12.87
2022-11-23T04:32:51.826Z,12.67
2022-11-23T04:35:55.775Z,13.43
2022-11-23T04:38:58.484Z,12.93
2022-11-23T04:42:02.466Z,12.43
2022-11-23T04:45:07.599Z,13.00
2022-11-23T04:48:10.619Z,13.03
2022-11-23T04:51:13.363Z,13.07
2022-11-23T04:54:16.027Z,12.43
2022-11-23T04:57:20.074Z,12.90
2022-11-23T05:00:24.408Z,13.35
2022-11-23T05:03:28.357Z,12.07
2022-11-23T05:06:31.046Z,13.50
2022-11-23T05:09:33.990Z,12.82
2022-11-23T05:12:37.280Z,12.00
2022-11-23T05:15:41.340Z,14.13
2022-11-23T05:18:44.049Z,13.10
2022-11-23T05:21:46.821Z,12.15
2022-11-23T05:24:49.698Z,13.63
2022-11-23T05:27:53.885Z,12.93
2022-11-23T05:30:57.900Z,12.48
2022-11-23T05:34:01.931Z,13.32
2022-11-23T05:37:04.671Z,12.85
2022-11-23T05:40:09.955Z,12.35
2022-11-23T05:43:13.921Z,13.03
2022-11-23T05:46:18.734Z,17.10
2022-11-23T05:52:43.259Z,14.35
2022-11-23T05:55:46.056Z,13.45
2022-11-23T05:58:50.141Z,13.47
2022-11-23T06:01:54.251Z,13.15
2022-11-23T06:04:58.271Z,12.05
2022-11-23T06:08:01.045Z,11.80
2022-11-23T06:11:03.772Z,12.25
2022-11-23T06:14:12.739Z,12.93
2022-11-23T06:17:19.820Z,12.50
2022-11-23T06:20:23.895Z,12.60
2022-11-23T06:23:26.572Z,11.80
2022-11-23T06:29:51.088Z,12.20
2022-11-23T06:32:55.414Z,11.68
2022-11-23T06:36:00.886Z,12.27
2022-11-23T06:39:03.630Z,12.13
2022-11-23T06:42:31.447Z,11.63
2022-11-23T06:45:29.136Z,11.00
2022-11-23T06:48:33.208Z,11.75
2022-11-23T06:51:35.965Z,11.17
2022-11-23T06:54:39.961Z,11.40
2022-11-23T06:57:42.702Z,11.43
2022-11-23T07:00:46.653Z,11.23
2022-11-23T07:03:50.754Z,10.75
2022-11-23T07:06:54.736Z,10.90
2022-11-23T07:09:57.775Z,11.80
2022-11-23T07:13:05.825Z,11.75
2022-11-23T07:16:09.706Z,10.82
2022-11-23T07:19:13.797Z,10.75
2022-11-23T07:22:16.550Z,11.67
2022-11-23T07:28:42.265Z,11.57
2022-11-23T07:31:46.184Z,11.65
2022-11-23T07:34:52.594Z,11.18
2022-11-23T07:37:56.837Z,11.57
2022-11-23T07:41:02.882Z,11.40
2022-11-23T07:44:07.355Z,11.60
2022-11-23T07:47:10.060Z,11.30
2022-11-23T07:50:14.600Z,12.15
2022-11-23T07:53:18.548Z,11.60
2022-11-23T07:56:21.364Z,10.75
2022-11-23T08:03:04.554Z,11.38
2022-11-23T08:06:12.115Z,11.57
2022-11-23T08:09:15.394Z,12.17
2022-11-23T08:12:18.142Z,12.32
2022-11-23T08:15:20.896Z,13.00
2022-11-23T08:18:25.094Z,12.45
2022-11-23T08:21:29.130Z,11.43
2022-11-23T08:24:33.412Z,11.40
2022-11-23T08:27:36.459Z,11.27
2022-11-23T08:34:03.432Z,11.75
2022-11-23T08:37:07.893Z,11.40
2022-11-23T08:40:11.926Z,9.97
2022-11-23T08:43:14.972Z,12.25
2022-11-23T08:46:18.300Z,13.13
2022-11-23T08:49:22.394Z,12.40
2022-11-23T08:52:26.596Z,12.20
2022-11-23T08:55:30.439Z,11.63
2022-11-23T08:58:33.417Z,10.48
2022-11-23T09:01:37.485Z,11.38
2022-11-23T09:04:41.017Z,11.52
2022-11-23T09:07:46.600Z,12.23
2022-11-23T09:10:49.321Z,11.27
2022-11-23T09:13:53.392Z,11.02
2022-11-23T09:16:56.421Z,11.13
2022-11-23T09:20:00.454Z,11.57
2022-11-23T09:23:09.192Z,11.65
2022-11-23T09:26:16.455Z,11.70
2022-11-23T09:29:19.445Z,11.20
2022-11-23T09:32:24.800Z,12.38
2022-11-23T09:35:29.243Z,12.55
2022-11-23T09:38:55.139Z,11.40
2022-11-23T09:42:14.762Z,11.20
2022-11-23T09:45:31.769Z,10.65
2022-11-23T09:48:48.839Z,11.15
2022-11-23T09:51:57.898Z,10.55
2022-11-23T09:55:08.160Z,11.10
2022-11-23T09:58:15.524Z,11.00
2022-11-23T10:01:21.726Z,9.93
2022-11-23T10:04:25.694Z,10.32
2022-11-23T10:07:50.684Z,11.13
2022-11-23T10:11:07.792Z,9.90
2022-11-23T10:14:24.845Z,10.20
2022-11-23T10:17:54.606Z,10.32
2022-11-23T10:21:05.006Z,10.60
2022-11-23T10:24:19.490Z,10.43
2022-11-23T10:27:27.059Z,10.38
2022-11-23T10:30:31.547Z,10.37
2022-11-23T10:33:41.460Z,9.88
2022-11-23T10:36:44.663Z,10.82
2022-11-23T10:39:47.354Z,10.10
2022-11-23T10:42:58.688Z,9.95
2022-11-23T10:46:27.888Z,10.17
2022-11-23T10:49:37.138Z,10.90
2022-11-23T10:52:40.127Z,10.80
2022-11-23T10:59:34.794Z,10.18
2022-11-23T11:02:42.063Z,10.40
2022-11-23T11:06:09.046Z,9.93
2022-11-23T11:09:22.062Z,9.00
2022-11-23T11:12:28.727Z,9.05
2022-11-23T11:15:36.246Z,9.40
2022-11-23T11:18:46.829Z,8.77
2022-11-23T11:21:50.243Z,9.73
2022-11-23T11:24:54.689Z,9.73
2022-11-23T11:27:58.810Z,9.40
2022-11-23T11:31:19.356Z,9.93
2022-11-23T11:34:27.378Z,9.17
2022-11-23T11:37:36.201Z,8.60
2022-11-23T11:40:46.408Z,8.98
2022-11-23T11:43:54.106Z,8.73
2022-11-23T11:47:06.718Z,9.70
2022-11-23T11:50:28.455Z,9.20
2022-11-23T11:53:42.286Z,8.63
2022-11-23T11:56:48.709Z,9.50
2022-11-23T11:59:55.976Z,8.57
2022-11-23T12:03:08.129Z,8.75
2022-11-23T12:06:25.127Z,9.27
2022-11-23T12:09:35.624Z,8.85
2022-11-23T12:12:39.859Z,9.07
2022-11-23T12:15:50.097Z,7.95
2022-11-23T12:19:10.317Z,9.00
2022-11-23T12:22:26.474Z,9.53
2022-11-23T12:25:37.457Z,9.15
2022-11-23T12:28:56.634Z,9.85
2022-11-23T12:32:12.068Z,9.38
2022-11-23T12:39:31.715Z,8.77
2022-11-23T12:42:42.335Z,9.93
2022-11-23T12:46:10.225Z,11.05
2022-11-23T12:49:28.185Z,9.82
2022-11-23T12:52:49.597Z,9.88
2022-11-23T12:56:00.118Z,9.60
2022-11-23T12:59:06.706Z,9.73
2022-11-23T13:02:22.606Z,10.55
2022-11-23T13:05:55.859Z,8.85
2022-11-23T13:09:43.493Z,10.15
2022-11-23T13:13:21.183Z,9.87
2022-11-23T13:16:39.794Z,9.35
2022-11-23T13:20:17.580Z,10.88
2022-11-23T13:23:24.116Z,9.70
2022-11-23T13:30:00.382Z,9.43
2022-11-23T13:33:26.591Z,9.48
2022-11-23T13:40:23.638Z,7.88
2022-11-23T13:43:31.309Z,8.85
2022-11-23T13:46:38.204Z,9.07
2022-11-23T13:49:46.747Z,7.78
2022-11-23T13:52:53.000Z,9.02
2022-11-23T13:56:27.144Z,7.60
2022-11-23T13:59:35.482Z,8.25
2022-11-23T14:02:38.469Z,8.33
2022-11-23T14:06:02.374Z,9.38
2022-11-23T14:09:33.218Z,9.75
2022-11-23T14:12:45.588Z,9.07
2022-11-23T14:16:01.922Z,9.15
2022-11-23T14:19:13.885Z,9.23
2022-11-23T14:22:33.266Z,9.27
2022-11-23T14:26:00.642Z,11.88
2022-11-23T14:29:22.758Z,10.27
2022-11-23T14:32:40.147Z,11.52
2022-11-23T14:35:52.431Z,9.33
2022-11-23T14:39:34.118Z,9.52
2022-11-23T14:42:45.361Z,8.75
2022-11-23T14:45:48.941Z,8.80
2022-11-23T14:49:06.105Z,8.77
2022-11-23T14:52:19.346Z,8.87
2022-11-23T14:55:25.787Z,8.18
2022-11-23T14:58:33.417Z,9.02
2022-11-23T15:01:37.234Z,8.82
2022-11-23T15:04:56.302Z,8.80
2022-11-23T15:08:04.348Z,8.80
2022-11-23T15:11:11.098Z,8.93
2022-11-23T15:14:22.722Z,9.30
2022-11-23T15:17:25.545Z,9.20
2022-11-23T15:20:34.617Z,9.35
2022-11-23T15:23:42.780Z,8.60
2022-11-23T15:26:49.473Z,8.82
2022-11-23T15:29:55.857Z,8.55
2022-11-23T15:32:59.908Z,8.10
2022-11-23T15:36:06.930Z,8.77
2022-11-23T15:39:19.546Z,9.37
2022-11-23T15:42:26.911Z,10.50
2022-11-23T15:45:59.356Z,10.15
2022-11-23T15:49:06.259Z,10.25
2022-11-23T15:52:14.934Z,10.05
2022-11-23T15:55:20.634Z,8.63
2022-11-23T15:58:25.930Z,8.65
2022-11-23T16:01:28.793Z,8.00
2022-11-23T16:08:02.767Z,9.93
2022-11-23T16:11:06.053Z,9.63
2022-11-23T16:14:19.642Z,8.77
2022-11-23T16:17:24.705Z,10.18
2022-11-23T16:20:30.290Z,10.15
2022-11-23T16:23:45.663Z,8.85
2022-11-23T16:26:49.922Z,8.67
2022-11-23T16:30:01.486Z,9.30
2022-11-23T16:33:06.511Z,9.88
2022-11-23T16:36:10.978Z,7.60
2022-11-23T16:39:15.206Z,8.70
2022-11-23T16:42:19.880Z,8.27
2022-11-23T16:45:23.834Z,8.35
2022-11-23T16:48:42.728Z,9.20
2022-11-23T16:51:56.416Z,9.05
2022-11-23T16:55:00.960Z,7.93
2022-11-23T16:58:05.021Z,8.90
2022-11-23T17:01:17.266Z,10.20
2022-11-23T17:04:20.027Z,9.48
2022-11-23T17:07:24.067Z,8.35
2022-11-23T17:10:28.157Z,8.30
2022-11-23T17:13:32.331Z,8.40
2022-11-23T17:16:35.370Z,8.98
2022-11-23T17:19:39.404Z,9.55
2022-11-23T17:22:42.291Z,8.77
2022-11-23T17:25:47.660Z,10.52
2022-11-23T17:28:51.649Z,9.63
2022-11-23T17:31:54.385Z,8.80
2022-11-23T17:34:58.556Z,9.10
2022-11-23T17:38:01.294Z,10.20
2022-11-23T17:41:06.778Z,9.52
2022-11-23T17:44:10.053Z,10.67
2022-11-23T17:47:26.328Z,10.20
2022-11-23T17:50:29.019Z,9.70
2022-11-23T17:53:32.970Z,8.77
2022-11-23T17:56:38.856Z,10.00
2022-11-23T17:59:41.624Z,9.10
2022-11-23T18:02:45.631Z,9.35
2022-11-23T18:05:48.382Z,10.45
2022-11-23T18:08:53.604Z,11.85
2022-11-23T18:11:58.991Z,10.77
2022-11-23T18:15:01.684Z,10.67
2022-11-23T18:18:05.644Z,12.00
2022-11-23T18:21:09.734Z,11.27
2022-11-23T18:24:13.760Z,10.80
2022-11-23T18:27:20.100Z,10.98
2022-11-23T18:30:22.806Z,11.03
2022-11-23T18:33:27.115Z,10.85
2022-11-23T18:36:30.099Z,11.20
2022-11-23T18:39:34.443Z,12.23
2022-11-23T18:42:40.133Z,11.80
2022-11-23T18:45:45.986Z,11.23
2022-11-23T18:48:51.443Z,12.73
2022-11-23T18:51:55.651Z,13.10
2022-11-23T18:54:59.620Z,13.35
2022-11-23T18:58:05.183Z,14.27
2022-11-23T19:01:12.234Z,13.30
2022-11-23T19:04:16.737Z,12.30
2022-11-23T19:07:25.287Z,14.35
2022-11-23T19:10:29.789Z,13.10
2022-11-23T19:13:37.170Z,13.95
2022-11-23T19:16:39.895Z,14.43
2022-11-23T19:19:43.893Z,13.02
2022-11-23T19:22:47.959Z,13.40
2022-11-23T19:25:50.671Z,13.00
2022-11-23T19:28:57.129Z,13.23
2022-11-23T19:31:59.898Z,12.53
2022-11-23T19:35:04.197Z,14.20
2022-11-23T19:38:08.248Z,14.07
2022-11-23T19:41:11.416Z,13.65
2022-11-23T19:44:16.724Z,15.13
2022-11-23T19:47:22.763Z,15.30
2022-11-23T19:50:27.213Z,15.80
2022-11-23T19:53:33.277Z,14.48
2022-11-23T19:56:37.119Z,14.45
2022-11-23T19:59:41.364Z,12.82
2022-11-23T20:02:45.884Z,13.60
2022-11-23T20:05:57.186Z,14.97
2022-11-23T20:09:02.658Z,14.55
2022-11-23T20:12:05.546Z,15.80
2022-11-23T20:15:11.865Z,15.45
2022-11-23T20:21:39.292Z,14.70
2022-11-23T20:24:42.051Z,14.35
2022-11-23T20:27:46.082Z,16.98
2022-11-23T20:30:50.944Z,15.63
2022-11-23T20:33:54.873Z,17.03
2022-11-23T20:36:58.872Z,15.23
2022-11-23T20:40:01.610Z,15.95
2022-11-23T20:43:06.042Z,16.48
2022-11-23T20:46:11.586Z,15.75
2022-11-23T20:49:14.361Z,16.13
2022-11-23T20:55:39.001Z,16.60
2022-11-23T20:58:43.099Z,17.13
2022-11-23T21:01:48.731Z,18.25
2022-11-23T21:04:51.496Z,18.60
2022-11-23T21:07:57.872Z,18.10
2022-11-23T21:11:25.551Z,18.67
2022-11-23T21:14:32.366Z,16.77
2022-11-23T21:17:38.060Z,16.30
2022-11-23T21:20:43.165Z,16.40
2022-11-23T21:23:51.122Z,16.07
2022-11-23T21:30:19.000Z,17.73
2022-11-23T21:33:24.419Z,17.50
2022-11-23T21:36:28.446Z,16.43
2022-11-23T21:39:32.994Z,16.47
2022-11-23T21:42:37.064Z,16.10
2022-11-23T21:45:39.814Z,16.63
2022-11-23T21:48:45.172Z,17.23
2022-11-23T21:51:49.328Z,15.23
2022-11-23T21:54:52.067Z,16.57
2022-11-23T21:57:56.043Z,18.58
2022-11-23T22:01:08.195Z,17.35
2022-11-23T22:04:16.560Z,17.63
2022-11-23T22:07:19.437Z,15.57
2022-11-23T22:10:23.481Z,15.10
2022-11-23T22:13:30.480Z,15.93
2022-11-23T22:16:38.228Z,16.10
2022-11-23T22:19:43.626Z,15.75
2022-11-23T22:22:46.412Z,15.10
2022-11-23T22:29:10.909Z,14.68
2022-11-23T22:32:14.960Z,15.30
2022-11-23T22:35:19.091Z,16.55
2022-11-23T22:38:23.051Z,16.93
2022-11-23T22:41:26.652Z,16.83
2022-11-23T22:44:31.135Z,16.92
2022-11-23T22:47:34.139Z,17.08
2022-11-23T22:50:39.786Z,17.52
2022-11-23T22:53:44.927Z,18.73
2022-11-23T22:56:47.896Z,18.03
2022-11-23T22:59:53.280Z,17.83
2022-11-23T23:02:57.105Z,18.77
2022-11-23T23:06:01.466Z,20.58
2022-11-23T23:09:07.755Z,19.97
2022-11-23T23:12:10.508Z,19.60
2022-11-23T23:15:14.612Z,19.23
2022-11-23T23:18:19.901Z,19.98
2022-11-23T23:21:24.647Z,19.75
2022-11-23T23:24:28.736Z,20.73
2022-11-23T23:27:31.906Z,20.10
2022-11-23T23:30:35.971Z,18.88
2022-11-23T23:37:02.390Z,21.02
2022-11-23T23:40:07.922Z,22.53
2022-11-23T23:43:10.711Z,21.47
2022-11-23T23:46:17.178Z,20.02
2022-11-23T23:49:19.966Z,20.50
2022-11-23T23:52:25.431Z,20.85
2022-11-23T23:55:29.480Z,21.53
2022-11-23T23:58:32.670Z,20.33
